Time;durP1;ratioP1;P1;durP2;ratioP2;P2;SDS_P1;SDS_P2;PMS_P1;PMS_P2;Temp;Humidity;BMP_temperature;BMP_pressure;BME280_temperature;BME280_humidity;BME280_pressure;Samples;Min_cycle;Max_cycle;Signal;HPM_P1;HPM_P2
2022/11/29 00:01:41;;;;;;;71.18;32.47;;;1.30;66.30;;;;;;4969239;28;115397;-81
2022/11/29 00:04:08;;;;;;;66.70;30.83;;;1.30;66.50;;;;;;4931143;28;117508;-80
2022/11/29 00:06:35;;;;;;;52.45;26.48;;;1.30;66.40;;;;;;4968582;28;114566;-81
2022/11/29 00:09:10;;;;;;;52.22;26.92;;;1.30;66.20;;;;;;4966176;28;114779;-80
2022/11/29 00:14:26;;;;;;;28.83;15.50;;;1.20;65.90;;;;;;4966715;28;114615;-81
2022/11/29 00:16:58;;;;;;;28.80;13.52;;;1.10;66.10;;;;;;4966957;28;114453;-79
2022/11/29 00:19:25;;;;;;;32.70;15.95;;;1.20;66.20;;;;;;4968696;28;114410;-80
2022/11/29 00:21:52;;;;;;;27.95;14.52;;;1.20;66.20;;;;;;4945079;28;115260;-81
2022/11/29 00:24:19;;;;;;;24.40;13.63;;;1.30;65.90;;;;;;4979680;28;115484;-80
2022/11/29 00:26:46;;;;;;;27.73;14.75;;;1.30;65.60;;;;;;4967782;28;114465;-80
2022/11/29 00:29:14;;;;;;;20.90;11.27;;;1.20;65.60;;;;;;4966465;28;115320;-80
2022/11/29 00:31:41;;;;;;;21.73;11.25;;;1.20;65.60;;;;;;4971184;28;115090;-80
2022/11/29 00:34:09;;;;;;;13.48;7.68;;;1.30;65.60;;;;;;4964299;28;116971;-80
2022/11/29 00:36:36;;;;;;;18.90;9.75;;;1.40;65.30;;;;;;4947301;28;118659;-80
2022/11/29 00:39:04;;;;;;;15.30;9.48;;;1.40;65.20;;;;;;4963805;28;114304;-81
2022/11/29 00:41:31;;;;;;;15.10;7.43;;;1.40;65.20;;;;;;4965329;28;115661;-80
2022/11/29 00:43:58;;;;;;;11.73;6.60;;;1.40;64.70;;;;;;4964775;28;114569;-80
2022/11/29 00:46:25;;;;;;;14.63;8.27;;;1.40;64.70;;;;;;4964244;28;114670;-80
2022/11/29 00:48:52;;;;;;;18.63;9.32;;;1.50;64.90;;;;;;4966831;28;114490;-80
2022/11/29 00:51:20;;;;;;;13.07;8.32;;;1.40;64.90;;;;;;4964840;28;115737;-80
2022/11/29 00:53:47;;;;;;;13.90;6.50;;;1.40;64.60;;;;;;4965785;28;114388;-79
2022/11/29 00:56:15;;;;;;;16.10;9.32;;;1.40;64.60;;;;;;4964837;28;114412;-79
2022/11/29 00:58:42;;;;;;;14.38;8.60;;;1.50;64.70;;;;;;4964908;28;114635;-79
2022/11/29 01:01:10;;;;;;;13.02;8.18;;;1.50;64.70;;;;;;4964835;28;115132;-79
2022/11/29 01:03:37;;;;;;;15.68;8.93;;;1.50;64.70;;;;;;4963471;28;114839;-79
2022/11/29 01:06:08;;;;;;;15.40;9.40;;;1.60;64.70;;;;;;4967716;28;114293;-80
2022/11/29 01:08:36;;;;;;;13.57;7.43;;;1.60;64.40;;;;;;4966916;28;114550;-80
2022/11/29 01:11:09;;;;;;;17.38;10.15;;;1.60;64.40;;;;;;4964470;28;114867;-79
2022/11/29 01:13:37;;;;;;;16.67;9.25;;;1.60;64.40;;;;;;4954062;28;115571;-80
2022/11/29 01:16:05;;;;;;;18.65;10.18;;;1.60;64.50;;;;;;4933953;28;114559;-80
2022/11/29 01:18:32;;;;;;;20.40;10.57;;;1.60;64.50;;;;;;4966724;28;114688;-80
2022/11/29 01:21:22;;;;;;;18.00;8.35;;;1.60;64.60;;;;;;4964839;28;115111;-80
2022/11/29 01:23:51;;;;;;;19.45;10.50;;;1.60;64.40;;;;;;4966044;28;114644;-81
2022/11/29 01:26:24;;;;;;;15.82;8.90;;;1.60;64.80;;;;;;4952062;28;114519;-80
2022/11/29 01:28:53;;;;;;;16.90;10.07;;;1.60;64.30;;;;;;4938178;28;116237;-81
2022/11/29 01:31:26;;;;;;;16.52;8.95;;;1.60;64.20;;;;;;4968711;28;115056;-80
2022/11/29 01:33:58;;;;;;;18.30;9.82;;;1.60;64.10;;;;;;4931600;28;117764;-80
2022/11/29 01:36:25;;;;;;;16.48;9.48;;;1.60;64.30;;;;;;4939236;28;114431;-80
2022/11/29 01:38:52;;;;;;;18.63;9.40;;;1.60;64.30;;;;;;4969972;28;114385;-80
2022/11/29 01:41:25;;;;;;;19.35;10.07;;;1.60;64.20;;;;;;4968291;28;115802;-80
2022/11/29 01:44:02;;;;;;;18.25;9.88;;;1.60;64.10;;;;;;4969425;28;114897;-80
2022/11/29 01:46:35;;;;;;;20.33;10.18;;;1.60;64.10;;;;;;4971521;28;114500;-80
2022/11/29 01:49:21;;;;;;;20.27;10.18;;;1.60;64.40;;;;;;4969267;28;114535;-81
2022/11/29 01:52:02;;;;;;;20.17;11.10;;;1.60;64.30;;;;;;4952066;28;115174;-80
2022/11/29 01:54:30;;;;;;;17.08;10.18;;;1.60;64.60;;;;;;4993066;28;115888;-80
2022/11/29 01:56:57;;;;;;;16.08;9.63;;;1.60;64.40;;;;;;4924178;28;114450;-80
2022/11/29 01:59:26;;;;;;;17.63;9.38;;;1.60;64.30;;;;;;4951155;28;114454;-81
2022/11/29 02:01:55;;;;;;;17.63;10.15;;;1.60;64.30;;;;;;4969099;28;115079;-80
2022/11/29 02:04:22;;;;;;;22.10;10.45;;;1.60;64.20;;;;;;4935122;28;114607;-80
2022/11/29 02:06:49;;;;;;;18.02;10.57;;;1.60;64.20;;;;;;4969846;28;115559;-80
2022/11/29 02:09:23;;;;;;;15.80;8.63;;;1.70;64.10;;;;;;4934095;28;118296;-80
2022/11/29 02:12:20;;;;;;;16.77;8.57;;;1.70;64.10;;;;;;4967208;28;115118;-80
2022/11/29 02:15:08;;;;;;;18.08;9.65;;;1.60;64.10;;;;;;4950523;28;114610;-81
2022/11/29 02:17:51;;;;;;;15.98;9.60;;;1.60;64.40;;;;;;4970094;28;114793;-80
2022/11/29 02:20:51;;;;;;;16.65;10.15;;;1.60;64.30;;;;;;4970625;28;114372;-80
2022/11/29 02:24:04;;;;;;;17.33;9.38;;;1.70;64.60;;;;;;4964227;28;115013;-81
2022/11/29 02:27:19;;;;;;;18.63;9.55;;;1.70;64.60;;;;;;4950274;28;114786;-80
2022/11/29 02:30:11;;;;;;;24.13;11.73;;;1.70;64.80;;;;;;4966585;28;114588;-81
2022/11/29 02:33:32;;;;;;;16.42;9.60;;;1.70;65.10;;;;;;4953769;28;114623;-81
2022/11/29 02:36:23;;;;;;;18.27;9.60;;;1.80;64.60;;;;;;4966966;28;115321;-81
2022/11/29 02:39:11;;;;;;;18.58;10.18;;;1.70;64.70;;;;;;4964831;28;114685;-81
2022/11/29 02:42:05;;;;;;;17.83;9.57;;;1.80;64.70;;;;;;4951387;28;114755;-80
2022/11/29 02:45:05;;;;;;;18.67;9.35;;;1.80;64.60;;;;;;4953710;28;115840;-80
2022/11/29 02:47:46;;;;;;;16.88;9.50;;;1.70;64.60;;;;;;4982254;28;116250;-81
2022/11/29 02:50:37;;;;;;;17.08;9.95;;;1.70;64.60;;;;;;4966353;28;115349;-81
2022/11/29 02:53:50;;;;;;;19.65;11.30;;;1.80;64.80;;;;;;4951287;28;114702;-80
2022/11/29 02:56:41;;;;;;;20.25;11.25;;;1.80;65.00;;;;;;4966579;28;114539;-81
2022/11/29 02:59:22;;;;;;;21.25;12.52;;;1.80;65.10;;;;;;4949650;28;115319;-80
2022/11/29 03:02:12;;;;;;;18.92;10.98;;;1.80;65.30;;;;;;4954000;28;118921;-80
2022/11/29 03:04:56;;;;;;;22.42;12.30;;;1.80;65.10;;;;;;4962276;28;114558;-81
2022/11/29 03:07:38;;;;;;;21.20;12.23;;;1.90;64.90;;;;;;4963928;28;115787;-80
2022/11/29 03:10:42;;;;;;;21.25;12.63;;;1.90;65.10;;;;;;4967273;28;115155;-80
2022/11/29 03:14:01;;;;;;;13.80;8.35;;;1.90;65.20;;;;;;4966597;28;114716;-81
2022/11/29 03:16:59;;;;;;;20.38;11.00;;;1.90;65.00;;;;;;4945309;28;114432;-81
2022/11/29 03:20:00;;;;;;;17.63;10.65;;;1.80;64.80;;;;;;4950910;28;114745;-81
2022/11/29 03:22:46;;;;;;;21.15;12.18;;;1.70;64.90;;;;;;4966483;28;118224;-81
2022/11/29 03:25:39;;;;;;;20.05;9.98;;;1.70;65.20;;;;;;4949038;28;117414;-81
2022/11/29 03:28:17;;;;;;;17.02;9.27;;;1.80;65.00;;;;;;4930498;28;114747;-81
2022/11/29 03:31:27;;;;;;;16.58;9.80;;;1.70;64.90;;;;;;4974109;28;115038;-80
2022/11/29 03:34:12;;;;;;;12.38;7.70;;;1.70;64.80;;;;;;4973522;28;115098;-80
2022/11/29 03:36:44;;;;;;;15.70;8.95;;;1.70;64.70;;;;;;4971405;28;114674;-80
2022/11/29 03:39:46;;;;;;;14.80;8.20;;;1.70;64.60;;;;;;4950713;28;114549;-81
2022/11/29 03:42:58;;;;;;;16.30;9.63;;;1.70;64.50;;;;;;4954392;28;114589;-81
2022/11/29 03:45:49;;;;;;;16.20;9.05;;;1.70;64.70;;;;;;4966572;28;115155;-81
2022/11/29 03:48:27;;;;;;;16.15;9.10;;;1.70;64.60;;;;;;4964822;28;114705;-81
2022/11/29 03:50:58;;;;;;;15.65;9.10;;;1.70;64.70;;;;;;4964260;28;114480;-80
2022/11/29 03:53:59;;;;;;;13.88;8.68;;;1.70;64.70;;;;;;4948590;28;114433;-80
2022/11/29 03:56:35;;;;;;;16.65;8.90;;;1.70;64.40;;;;;;4975113;28;116030;-81
2022/11/29 03:59:41;;;;;;;16.50;9.50;;;1.70;64.70;;;;;;4966875;28;114568;-81
2022/11/29 04:02:59;;;;;;;18.80;9.52;;;1.70;64.60;;;;;;4966808;28;114513;-81
2022/11/29 04:06:06;;;;;;;15.10;8.27;;;1.70;64.70;;;;;;4973054;28;116222;-80
2022/11/29 04:08:54;;;;;;;17.05;9.32;;;1.80;64.70;;;;;;4964610;28;117217;-80
2022/11/29 04:12:04;;;;;;;14.65;8.95;;;1.70;64.40;;;;;;4949516;28;114645;-80
2022/11/29 04:15:33;;;;;;;13.15;7.38;;;1.70;64.50;;;;;;4963001;28;117949;-79
2022/11/29 04:18:47;;;;;;;14.13;8.32;;;1.60;64.50;;;;;;4965067;28;115840;-81
2022/11/29 04:21:38;;;;;;;16.05;8.52;;;1.70;64.60;;;;;;4964649;28;115742;-81
2022/11/29 04:24:28;;;;;;;15.77;8.90;;;1.60;64.70;;;;;;4963162;28;115598;-81
2022/11/29 04:27:42;;;;;;;15.30;8.13;;;1.70;64.80;;;;;;4950071;28;114393;-80
2022/11/29 04:30:58;;;;;;;15.38;8.90;;;1.70;64.60;;;;;;4966096;28;114638;-82
2022/11/29 04:34:16;;;;;;;14.95;6.65;;;1.60;64.80;;;;;;4949226;28;115709;-81
2022/11/29 04:36:59;;;;;;;16.63;8.98;;;1.70;64.70;;;;;;4951305;28;115566;-80
2022/11/29 04:39:47;;;;;;;14.02;8.20;;;1.50;64.80;;;;;;4949795;28;114663;-81
2022/11/29 04:42:38;;;;;;;15.85;9.57;;;1.60;64.80;;;;;;4966221;28;116269;-81
2022/11/29 04:45:50;;;;;;;13.27;7.15;;;1.60;64.80;;;;;;4966691;28;115471;-81
2022/11/29 04:48:46;;;;;;;15.32;9.38;;;1.60;64.80;;;;;;4964986;28;115042;-81
2022/11/29 04:52:00;;;;;;;16.70;8.93;;;1.60;65.10;;;;;;4952011;28;114786;-81
2022/11/29 04:55:01;;;;;;;19.90;10.23;;;1.60;65.20;;;;;;4968675;28;114535;-80
2022/11/29 04:58:15;;;;;;;20.92;10.68;;;1.70;65.30;;;;;;4945106;28;115142;-82
2022/11/29 05:01:22;;;;;;;20.27;11.23;;;1.70;66.00;;;;;;4969370;28;114651;-81
2022/11/29 05:04:01;;;;;;;20.08;11.18;;;1.80;65.60;;;;;;4970773;28;115839;-80
2022/11/29 05:06:43;;;;;;;19.83;11.13;;;1.80;65.70;;;;;;4974236;28;114508;-80
2022/11/29 05:09:49;;;;;;;20.08;12.13;;;1.90;65.90;;;;;;4957556;28;115170;-81
2022/11/29 05:12:47;;;;;;;16.30;10.25;;;1.90;66.30;;;;;;4985826;28;116450;-81
2022/11/29 05:15:58;;;;;;;20.85;11.52;;;1.90;65.80;;;;;;4954028;28;114281;-81
2022/11/29 05:19:11;;;;;;;19.50;11.65;;;1.90;66.40;;;;;;4973207;28;114754;-80
2022/11/29 05:21:45;;;;;;;20.55;11.32;;;2.00;66.00;;;;;;4956448;28;115472;-80
2022/11/29 05:24:34;;;;;;;;;;;2.00;66.00;;;;;;4970328;28;114674;-81
2022/11/29 05:27:26;;;;;;;22.70;11.65;;;2.00;65.80;;;;;;4969508;28;117282;-81
2022/11/29 05:30:03;;;;;;;21.45;10.52;;;1.90;66.40;;;;;;4969681;28;114614;-81
2022/11/29 05:32:57;;;;;;;23.30;12.32;;;2.00;66.00;;;;;;4969242;28;116482;-81
2022/11/29 05:35:53;;;;;;;32.47;15.50;;;2.00;65.80;;;;;;4967219;28;116172;-81
2022/11/29 05:39:04;;;;;;;31.63;14.57;;;2.10;66.00;;;;;;4966603;28;115439;-80
2022/11/29 05:41:51;;;;;;;29.77;15.18;;;2.10;65.70;;;;;;4966029;28;114670;-81
2022/11/29 05:44:36;;;;;;;25.60;13.18;;;2.10;65.70;;;;;;4966716;28;116192;-81
2022/11/29 05:47:08;;;;;;;27.05;13.68;;;2.10;65.70;;;;;;4965144;28;114683;-80
2022/11/29 05:50:15;;;;;;;24.88;13.57;;;2.10;65.70;;;;;;4938114;28;114334;-80
2022/11/29 05:52:53;;;;;;;17.00;10.63;;;2.10;65.40;;;;;;4979464;28;115400;-80
2022/11/29 05:55:58;;;;;;;20.67;11.88;;;2.00;65.30;;;;;;4951133;28;116208;-79
2022/11/29 05:58:50;;;;;;;21.48;11.30;;;2.10;65.20;;;;;;4966443;28;114920;-80
2022/11/29 06:01:26;;;;;;;18.98;10.82;;;2.00;65.10;;;;;;4983655;28;114692;-79
2022/11/29 06:04:13;;;;;;;22.70;11.02;;;2.00;65.00;;;;;;4952234;28;114426;-80
2022/11/29 06:07:07;;;;;;;16.88;10.25;;;2.10;64.90;;;;;;4964789;28;116310;-80
2022/11/29 06:10:00;;;;;;;15.32;9.45;;;2.00;64.90;;;;;;4948940;28;116990;-80
2022/11/29 06:12:34;;;;;;;16.30;10.10;;;2.00;64.70;;;;;;4953920;28;114740;-81
2022/11/29 06:15:35;;;;;;;18.60;9.93;;;2.00;64.80;;;;;;4968043;28;114457;-81
2022/11/29 06:18:42;;;;;;;18.23;9.20;;;2.10;64.90;;;;;;4966801;28;116354;-80
2022/11/29 06:21:49;;;;;;;18.85;9.18;;;2.10;64.50;;;;;;4962402;28;114724;-81
2022/11/29 06:24:50;;;;;;;16.65;9.07;;;2.10;64.60;;;;;;4968293;28;114397;-81
2022/11/29 06:28:11;;;;;;;15.77;9.02;;;2.10;64.40;;;;;;4966796;28;114518;-82
2022/11/29 06:30:59;;;;;;;15.98;9.07;;;2.10;64.40;;;;;;4967680;28;115245;-81
2022/11/29 06:34:06;;;;;;;18.00;8.85;;;2.10;64.10;;;;;;4947696;28;115676;-81
2022/11/29 06:37:03;;;;;;;19.17;8.27;;;2.10;64.60;;;;;;4951526;28;114486;-81
2022/11/29 06:39:31;;;;;;;15.25;8.60;;;2.10;64.20;;;;;;4966300;28;114782;-79
2022/11/29 06:41:58;;;;;;;13.80;8.25;;;2.10;63.90;;;;;;4967783;28;119475;-81
2022/11/29 06:44:25;;;;;;;15.45;8.20;;;2.10;63.50;;;;;;4934445;28;114563;-82
2022/11/29 06:47:06;;;;;;;18.48;9.23;;;2.10;63.90;;;;;;4948374;28;114685;-79
2022/11/29 06:49:57;;;;;;;15.75;8.23;;;2.10;63.80;;;;;;4951963;28;114487;-79
2022/11/29 06:53:23;;;;;;;13.27;7.90;;;2.10;64.00;;;;;;4952807;28;115027;-80
2022/11/29 06:56:23;;;;;;;14.88;8.40;;;2.10;63.50;;;;;;4954707;28;118539;-80
2022/11/29 06:59:13;;;;;;;14.05;7.55;;;2.10;63.30;;;;;;4967321;28;114293;-80
2022/11/29 07:02:20;;;;;;;14.80;8.73;;;2.20;63.10;;;;;;4951691;28;114587;-81
2022/11/29 07:05:22;;;;;;;13.35;8.60;;;2.20;63.70;;;;;;4966465;28;116506;-80
2022/11/29 07:07:51;;;;;;;13.60;8.18;;;2.40;63.10;;;;;;4967418;28;114822;-81
2022/11/29 07:10:20;;;;;;;14.80;8.77;;;2.40;63.00;;;;;;4948850;28;114373;-81
2022/11/29 07:12:48;;;;;;;10.82;6.30;;;2.60;62.90;;;;;;4967328;28;114419;-81
2022/11/29 07:15:18;;;;;;;13.88;7.95;;;2.70;62.20;;;;;;4949699;28;115660;-81
2022/11/29 07:18:11;;;;;;;14.10;8.60;;;2.70;62.20;;;;;;4966901;28;114592;-81
2022/11/29 07:20:53;;;;;;;13.68;7.50;;;2.90;62.20;;;;;;4947518;28;114450;-81
2022/11/29 07:23:40;;;;;;;11.40;6.97;;;3.00;62.00;;;;;;4966739;28;114487;-80
2022/11/29 07:26:25;;;;;;;11.70;6.50;;;3.10;61.60;;;;;;4964985;28;115891;-82
2022/11/29 07:29:12;;;;;;;;;;;3.10;61.30;;;;;;4977914;28;114734;-82
2022/11/29 07:32:11;;;;;;;13.85;8.65;;;3.20;61.70;;;;;;4986451;28;114589;-82
2022/11/29 07:35:16;;;;;;;12.70;7.93;;;3.30;61.10;;;;;;4977851;28;116282;-81
2022/11/29 07:38:15;;;;;;;13.98;8.55;;;3.50;60.70;;;;;;4964565;28;115157;-81
2022/11/29 07:41:04;;;;;;;13.90;7.43;;;3.50;60.60;;;;;;4963371;28;114716;-81
2022/11/29 07:43:53;;;;;;;17.58;8.68;;;3.70;60.30;;;;;;4966277;28;115493;-82
2022/11/29 07:46:20;;;;;;;13.75;8.90;;;3.70;59.80;;;;;;4967828;28;114729;-82
2022/11/29 07:48:47;;;;;;;14.02;8.73;;;3.80;59.20;;;;;;4966555;28;115207;-82
2022/11/29 07:51:14;;;;;;;18.77;9.38;;;3.80;59.30;;;;;;4966795;28;115145;-83
2022/11/29 07:53:42;;;;;;;17.30;10.13;;;3.80;59.30;;;;;;4966776;28;114653;-81
2022/11/29 07:56:11;;;;;;;18.80;9.27;;;3.90;58.90;;;;;;4950638;28;114455;-82
2022/11/29 07:58:38;;;;;;;14.50;8.45;;;3.90;59.30;;;;;;4965893;28;115126;-81
2022/11/29 08:01:05;;;;;;;14.65;9.05;;;4.00;58.90;;;;;;4970476;28;119194;-82
2022/11/29 08:03:34;;;;;;;24.38;12.02;;;4.10;58.50;;;;;;4969386;28;114437;-82
2022/11/29 08:06:04;;;;;;;16.83;9.05;;;4.10;58.40;;;;;;4985289;28;114607;-81
2022/11/29 08:08:31;;;;;;;17.23;8.60;;;4.10;58.50;;;;;;4967324;28;117162;-81
2022/11/29 08:11:10;;;;;;;16.98;9.63;;;4.20;58.40;;;;;;4965061;28;115090;-83
2022/11/29 08:13:37;;;;;;;16.33;8.38;;;4.20;58.40;;;;;;4945813;28;114620;-83
2022/11/29 08:16:06;;;;;;;13.20;7.80;;;4.20;58.00;;;;;;4948665;28;114396;-81
2022/11/29 08:18:35;;;;;;;14.63;8.18;;;4.20;58.30;;;;;;4963978;28;115142;-81
2022/11/29 08:21:06;;;;;;;13.52;8.50;;;4.30;57.80;;;;;;4964801;28;115735;-81
2022/11/29 08:23:33;;;;;;;15.55;8.23;;;4.30;58.00;;;;;;4964622;28;114315;-81
2022/11/29 08:26:01;;;;;;;16.58;8.95;;;4.40;58.10;;;;;;4948495;28;114545;-81
2022/11/29 08:28:28;;;;;;;14.48;8.45;;;4.40;57.80;;;;;;4962651;28;116742;-82
2022/11/29 08:31:04;;;;;;;16.15;9.68;;;4.40;57.70;;;;;;4963765;28;114693;-81
2022/11/29 08:33:33;;;;;;;17.90;8.85;;;4.40;57.40;;;;;;4965746;28;114979;-84
2022/11/29 08:36:09;;;;;;;15.35;9.93;;;4.40;57.00;;;;;;4941185;28;114544;-82
2022/11/29 08:38:36;;;;;;;14.65;8.90;;;4.50;57.70;;;;;;4982755;28;115540;-82
2022/11/29 08:41:05;;;;;;;14.98;7.88;;;4.50;56.80;;;;;;4933968;28;114713;-81
2022/11/29 08:43:32;;;;;;;14.68;7.75;;;4.50;57.10;;;;;;4964201;28;114656;-81
2022/11/29 08:45:59;;;;;;;15.23;7.65;;;4.60;57.50;;;;;;4964579;28;114498;-81
2022/11/29 08:48:26;;;;;;;15.10;8.18;;;4.60;57.20;;;;;;4964513;28;115144;-82
2022/11/29 08:50:54;;;;;;;14.68;8.48;;;4.60;57.00;;;;;;4964770;28;114655;-81
2022/11/29 08:53:41;;;;;;;15.18;7.45;;;4.60;56.10;;;;;;4961663;28;114488;-81
2022/11/29 08:56:15;;;;;;;13.23;7.43;;;4.60;56.80;;;;;;4965968;28;114606;-83
2022/11/29 08:59:05;;;;;;;14.15;8.18;;;4.60;56.90;;;;;;4949771;28;116357;-82
2022/11/29 09:01:33;;;;;;;11.80;7.25;;;4.70;57.20;;;;;;4964523;28;114765;-82
2022/11/29 09:04:05;;;;;;;11.02;7.38;;;4.70;56.90;;;;;;4964618;28;114554;-82
2022/11/29 09:06:39;;;;;;;14.05;7.70;;;4.70;56.80;;;;;;4964943;28;114379;-81
2022/11/29 09:09:06;;;;;;;12.18;7.95;;;4.80;56.90;;;;;;4962819;28;115146;-80
2022/11/29 09:11:34;;;;;;;12.55;7.68;;;4.70;56.70;;;;;;4964816;28;114858;-81
2022/11/29 09:14:04;;;;;;;13.50;7.95;;;4.80;56.50;;;;;;4963799;28;114423;-81
2022/11/29 09:16:34;;;;;;;10.85;7.03;;;4.80;56.60;;;;;;4931391;28;114536;-82
2022/11/29 09:19:03;;;;;;;11.57;7.15;;;4.80;56.20;;;;;;4962404;28;115831;-82
2022/11/29 09:21:31;;;;;;;12.70;7.78;;;4.80;56.40;;;;;;4945538;28;117122;-82
2022/11/29 09:24:00;;;;;;;12.00;7.15;;;4.80;56.00;;;;;;4963877;28;114401;-82
2022/11/29 09:26:31;;;;;;;13.88;7.38;;;4.90;56.40;;;;;;4955776;28;114549;-81
2022/11/29 09:29:02;;;;;;;12.02;7.03;;;4.90;56.10;;;;;;4966258;28;115148;-82
2022/11/29 09:31:30;;;;;;;12.05;6.97;;;5.00;55.60;;;;;;4966692;28;117432;-82
2022/11/29 09:33:57;;;;;;;11.38;6.32;;;4.90;56.10;;;;;;4976188;28;114514;-82
2022/11/29 09:36:25;;;;;;;12.68;8.48;;;5.00;55.70;;;;;;4963614;28;114286;-83
2022/11/29 09:38:56;;;;;;;13.77;8.25;;;4.90;56.00;;;;;;4960490;28;115204;-81
2022/11/29 09:41:48;;;;;;;12.02;7.18;;;5.00;56.30;;;;;;4964227;28;114574;-82
2022/11/29 09:44:49;;;;;;;11.10;7.25;;;5.10;55.40;;;;;;4964849;28;114450;-82
2022/11/29 09:47:34;;;;;;;11.93;5.97;;;5.10;55.50;;;;;;4967036;28;114449;-82
2022/11/29 09:50:50;;;;;;;11.32;6.68;;;5.10;55.40;;;;;;4950722;28;116312;-83
2022/11/29 09:53:49;;;;;;;13.00;7.72;;;5.00;55.30;;;;;;4965402;28;115263;-82
2022/11/29 09:56:29;;;;;;;13.88;8.10;;;5.10;55.70;;;;;;4966592;28;114849;-82
2022/11/29 09:59:00;;;;;;;13.70;7.90;;;5.10;55.80;;;;;;4947125;28;114720;-82
2022/11/29 10:01:41;;;;;;;14.57;8.40;;;5.20;55.90;;;;;;4965613;28;116438;-82
2022/11/29 10:04:18;;;;;;;12.35;7.88;;;5.20;56.10;;;;;;4962324;28;115615;-79
2022/11/29 10:07:15;;;;;;;14.77;7.45;;;5.40;55.80;;;;;;4956593;28;114736;-82
2022/11/29 10:10:07;;;;;;;15.25;8.48;;;5.40;55.70;;;;;;4980485;28;114707;-82
2022/11/29 10:12:58;;;;;;;12.05;7.60;;;5.50;55.60;;;;;;4967709;28;115307;-82
2022/11/29 10:15:28;;;;;;;13.93;8.18;;;5.60;55.30;;;;;;4966182;28;116030;-81
2022/11/29 10:18:01;;;;;;;13.68;7.72;;;5.60;55.60;;;;;;4949754;28;114635;-81
2022/11/29 10:20:44;;;;;;;12.27;7.60;;;5.60;55.40;;;;;;4966612;28;114620;-81
2022/11/29 10:23:35;;;;;;;12.25;8.15;;;5.70;55.10;;;;;;4962218;28;116255;-82
2022/11/29 10:26:06;;;;;;;14.52;7.43;;;5.70;55.30;;;;;;4959343;28;114977;-82
2022/11/29 10:28:35;;;;;;;12.15;7.95;;;5.70;54.80;;;;;;4955013;28;114537;-82
2022/11/29 10:31:26;;;;;;;11.75;7.05;;;5.70;54.70;;;;;;4978346;28;114559;-82
2022/11/29 10:33:54;;;;;;;10.50;7.00;;;5.80;54.40;;;;;;4950575;28;116763;-82
2022/11/29 10:36:28;;;;;;;11.80;7.13;;;5.70;54.20;;;;;;4959512;28;115343;-81
2022/11/29 10:39:00;;;;;;;;;;;5.70;54.60;;;;;;4944196;28;114644;-82
2022/11/29 10:41:27;;;;;;;9.10;5.53;;;5.70;55.60;;;;;;4971917;28;114657;-82
2022/11/29 10:43:56;;;;;;;9.73;6.32;;;5.80;55.00;;;;;;4968321;28;115143;-82
2022/11/29 10:46:31;;;;;;;11.90;8.13;;;5.90;54.80;;;;;;4964936;28;114876;-82
2022/11/29 10:49:01;;;;;;;11.45;7.53;;;5.90;54.50;;;;;;4969015;28;114574;-82
2022/11/29 10:51:28;;;;;;;10.40;6.78;;;6.00;54.40;;;;;;4984812;28;115878;-82
2022/11/29 10:53:55;;;;;;;12.05;8.00;;;6.10;54.30;;;;;;4934968;28;115599;-81
2022/11/29 10:56:29;;;;;;;10.55;6.93;;;6.10;54.20;;;;;;4949774;28;115282;-81
2022/11/29 10:59:06;;;;;;;12.35;6.70;;;6.20;53.80;;;;;;4930564;28;114431;-81
2022/11/29 11:01:40;;;;;;;9.57;6.38;;;6.20;54.00;;;;;;4966947;28;114761;-81
2022/11/29 11:04:14;;;;;;;8.60;5.75;;;6.30;53.40;;;;;;4963572;28;117673;-81
2022/11/29 11:06:51;;;;;;;10.88;6.47;;;6.30;53.60;;;;;;4963575;28;114771;-81
2022/11/29 11:09:21;;;;;;;9.98;6.70;;;6.30;53.40;;;;;;4980684;28;114416;-81
2022/11/29 11:11:51;;;;;;;9.13;6.20;;;6.40;53.70;;;;;;4966274;28;115553;-82
2022/11/29 11:14:30;;;;;;;9.77;6.07;;;6.40;53.50;;;;;;4978876;28;115308;-80
2022/11/29 11:17:26;;;;;;;9.82;6.38;;;6.40;53.20;;;;;;4962760;28;114971;-80
2022/11/29 11:20:07;;;;;;;9.50;6.57;;;6.50;53.10;;;;;;4961797;28;114472;-81
2022/11/29 11:22:34;;;;;;;10.50;6.32;;;6.50;53.00;;;;;;4969574;28;114557;-81
2022/11/29 11:25:27;;;;;;;9.10;6.03;;;6.50;53.40;;;;;;4946991;28;116166;-81
2022/11/29 11:27:55;;;;;;;8.93;6.50;;;6.50;52.80;;;;;;4974589;28;114628;-82
2022/11/29 11:30:25;;;;;;;12.95;6.47;;;6.40;53.00;;;;;;4955281;28;114299;-82
2022/11/29 11:33:23;;;;;;;9.93;6.18;;;6.50;52.80;;;;;;4939374;28;114540;-82
2022/11/29 11:36:22;;;;;;;8.75;6.03;;;6.50;52.50;;;;;;4971302;28;115355;-82
2022/11/29 11:39:10;;;;;;;9.50;6.20;;;6.50;52.30;;;;;;4976358;28;114702;-80
2022/11/29 11:44:40;;;;;;;9.60;6.28;;;6.60;52.60;;;;;;4962676;28;116921;-81
2022/11/29 11:47:24;;;;;;;9.63;6.18;;;6.60;52.20;;;;;;4963410;28;115048;-82
2022/11/29 11:50:03;;;;;;;9.35;6.20;;;6.60;52.20;;;;;;4963963;28;115189;-82
2022/11/29 11:52:43;;;;;;;10.15;6.45;;;6.60;51.90;;;;;;4964936;28;114598;-82
2022/11/29 11:55:39;;;;;;;10.55;6.53;;;6.60;51.80;;;;;;4964527;28;114572;-82
2022/11/29 11:58:12;;;;;;;9.82;6.20;;;6.60;51.80;;;;;;4942898;28;116402;-82
2022/11/29 12:00:48;;;;;;;10.93;6.10;;;6.50;51.50;;;;;;4975189;28;115777;-82
2022/11/29 12:03:53;;;;;;;10.30;6.57;;;6.50;51.60;;;;;;4962006;28;114585;-82
2022/11/29 12:06:49;;;;;;;10.95;6.93;;;6.50;51.80;;;;;;4963424;28;114456;-81
2022/11/29 12:09:44;;;;;;;11.68;7.00;;;6.50;52.10;;;;;;4967514;28;116087;-81
2022/11/29 12:12:34;;;;;;;16.75;8.77;;;6.60;51.60;;;;;;4962773;28;115154;-81
2022/11/29 12:15:03;;;;;;;17.30;9.88;;;6.50;51.40;;;;;;4929965;28;117036;-81
2022/11/29 12:17:43;;;;;;;11.68;7.93;;;6.50;51.70;;;;;;4946956;28;114658;-81
2022/11/29 12:20:22;;;;;;;13.50;8.27;;;6.60;51.20;;;;;;4962502;28;115848;-81
2022/11/29 12:22:52;;;;;;;11.32;7.30;;;6.50;51.10;;;;;;4961876;28;114876;-81
2022/11/29 12:25:54;;;;;;;10.77;6.40;;;6.50;51.30;;;;;;4963134;28;114466;-82
2022/11/29 12:28:32;;;;;;;9.05;5.85;;;6.60;51.40;;;;;;4962467;28;114695;-81
2022/11/29 12:31:30;;;;;;;13.77;7.10;;;6.50;51.60;;;;;;4943709;28;119181;-82
2022/11/29 12:34:16;;;;;;;8.30;5.78;;;6.50;51.80;;;;;;4962013;28;114698;-81
2022/11/29 12:37:10;;;;;;;8.95;6.10;;;6.50;51.80;;;;;;4978025;28;114445;-82
2022/11/29 12:40:22;;;;;;;8.18;5.82;;;6.60;51.60;;;;;;4972928;28;114567;-81
2022/11/29 12:43:49;;;;;;;8.02;5.65;;;6.60;51.30;;;;;;4979852;28;115789;-83
2022/11/29 12:46:24;;;;;;;8.20;5.55;;;6.50;51.70;;;;;;4951987;28;114898;-82
2022/11/29 12:49:02;;;;;;;8.93;6.03;;;6.50;51.50;;;;;;4958347;28;114585;-82
2022/11/29 12:52:11;;;;;;;13.90;7.68;;;6.50;51.60;;;;;;4970973;28;114532;-84
2022/11/29 12:54:56;;;;;;;16.17;7.38;;;6.50;51.30;;;;;;4963700;28;115037;-82
2022/11/29 12:57:43;;;;;;;;;;;6.40;51.50;;;;;;4970563;28;114607;-82
2022/11/29 13:00:15;;;;;;;19.50;10.35;;;6.30;52.40;;;;;;4970357;28;116874;-82
2022/11/29 13:02:57;;;;;;;16.25;8.98;;;6.30;51.80;;;;;;4973425;28;114953;-82
2022/11/29 13:05:49;;;;;;;11.65;7.63;;;6.30;51.80;;;;;;4927404;28;115406;-82
2022/11/29 13:08:47;;;;;;;12.05;7.45;;;6.30;51.70;;;;;;4939072;28;114974;-80
2022/11/29 13:11:35;;;;;;;10.25;6.72;;;6.40;51.60;;;;;;4951432;28;114574;-81
2022/11/29 13:14:42;;;;;;;8.48;6.10;;;6.40;51.80;;;;;;4967980;28;114818;-81
2022/11/29 13:17:36;;;;;;;9.45;6.40;;;6.30;51.70;;;;;;4949325;28;118574;-81
2022/11/29 13:20:49;;;;;;;11.02;6.55;;;6.30;52.00;;;;;;4949470;28;115439;-81
2022/11/29 13:23:35;;;;;;;9.73;6.80;;;6.30;51.70;;;;;;4999696;28;114490;-81
2022/11/29 13:26:25;;;;;;;9.77;6.75;;;6.30;52.50;;;;;;4952924;28;114476;-81
2022/11/29 13:28:52;;;;;;;11.10;7.03;;;6.30;52.40;;;;;;4965327;28;116203;-81
2022/11/29 13:31:21;;;;;;;11.55;7.25;;;6.30;52.50;;;;;;4965352;28;114638;-81
2022/11/29 13:34:00;;;;;;;11.52;7.57;;;6.30;52.40;;;;;;4948392;28;114863;-81
2022/11/29 13:36:32;;;;;;;9.75;6.63;;;6.30;52.20;;;;;;4966802;28;114704;-81
2022/11/29 13:39:30;;;;;;;13.68;7.97;;;6.30;52.40;;;;;;4948858;28;115100;-81
2022/11/29 13:42:27;;;;;;;11.15;7.03;;;6.20;52.40;;;;;;4966663;28;114582;-81
2022/11/29 13:45:21;;;;;;;13.05;7.50;;;6.30;52.40;;;;;;4970529;28;114593;-81
2022/11/29 13:47:59;;;;;;;10.85;7.35;;;6.30;53.20;;;;;;4940467;28;115787;-81
2022/11/29 13:50:43;;;;;;;11.05;7.63;;;6.20;52.80;;;;;;4964417;28;115542;-81
2022/11/29 13:53:39;;;;;;;12.68;7.38;;;6.20;52.40;;;;;;4961656;28;115058;-81
2022/11/29 13:56:47;;;;;;;13.75;8.15;;;6.10;52.80;;;;;;4962334;28;114545;-81
2022/11/29 13:59:30;;;;;;;12.40;8.40;;;6.10;52.50;;;;;;4957297;28;115715;-81
2022/11/29 14:01:57;;;;;;;11.57;7.72;;;6.10;53.00;;;;;;4954968;28;115189;-82
2022/11/29 14:04:44;;;;;;;11.60;8.50;;;6.00;52.70;;;;;;4973311;28;115750;-82